Time;durP1;ratioP1;P1;durP2;ratioP2;P2;SDS_P1;SDS_P2;PMS_P1;PMS_P2;Temp;Humidity;BMP_temperature;BMP_pressure;BME280_temperature;BME280_humidity;BME280_pressure;Samples;Min_cycle;Max_cycle;Signal;HPM_P1;HPM_P2
2023/05/09 00:01:30;;;;;;;;;;;23.20;55.70;;;;;;1561718;76;705;-69
2023/05/09 00:03:32;;;;;;;;;;;23.30;55.80;;;;;;1563858;74;662;-69
2023/05/09 00:05:34;;;;;;;;;;;23.30;55.70;;;;;;1561639;74;724;-69
2023/05/09 00:07:36;;;;;;;;;;;23.20;55.60;;;;;;1562041;74;1221;-68
2023/05/09 00:09:37;;;;;;;;;;;23.30;55.50;;;;;;1566277;75;694;-68
2023/05/09 00:11:39;;;;;;;;;;;23.30;55.50;;;;;;1562348;74;664;-68
2023/05/09 00:13:42;;;;;;;;;;;23.30;55.60;;;;;;1554681;74;1391;-69
2023/05/09 00:15:45;;;;;;;;;;;23.20;55.50;;;;;;1559317;74;686;-68
2023/05/09 00:17:47;;;;;;;;;;;23.30;55.60;;;;;;1570137;74;1159;-68
2023/05/09 00:19:49;;;;;;;;;;;23.30;55.60;;;;;;1557640;74;1950;-68
2023/05/09 00:21:51;;;;;;;;;;;23.30;55.70;;;;;;1556299;74;641;-69
2023/05/09 00:23:53;;;;;;;;;;;23.30;55.70;;;;;;1566903;74;757;-69
2023/05/09 00:25:55;;;;;;;;;;;23.30;55.70;;;;;;1563463;75;738;-68
2023/05/09 00:27:57;;;;;;;;;;;23.20;55.70;;;;;;1566733;74;1540;-67
2023/05/09 00:29:59;;;;;;;;;;;23.30;55.70;;;;;;1556140;74;669;-68
2023/05/09 00:32:01;;;;;;;;;;;23.20;55.60;;;;;;1567974;74;669;-69
2023/05/09 00:34:03;;;;;;;;;;;23.30;55.60;;;;;;1568948;74;690;-68
2023/05/09 00:36:05;;;;;;;;;;;23.20;55.50;;;;;;1564294;75;701;-68
2023/05/09 00:38:06;;;;;;;;;;;23.20;55.50;;;;;;1555227;74;1234;-70
2023/05/09 00:40:08;;;;;;;;;;;23.30;55.60;;;;;;1563347;75;1924;-67
2023/05/09 00:42:10;;;;;;;;;;;23.20;55.40;;;;;;1561892;75;685;-67
2023/05/09 00:44:12;;;;;;;;;;;23.20;55.40;;;;;;1563374;75;742;-68
2023/05/09 00:46:14;;;;;;;;;;;23.20;55.20;;;;;;1565195;75;609;-69
2023/05/09 00:48:16;;;;;;;;;;;23.30;55.40;;;;;;1570793;74;1198;-70
2023/05/09 00:50:18;;;;;;;;;;;23.20;55.60;;;;;;1562520;74;702;-68
2023/05/09 00:52:22;;;;;;;;;;;23.10;55.60;;;;;;1555242;74;700;-68
2023/05/09 00:54:23;;;;;;;;;;;23.10;55.70;;;;;;1564598;74;1334;-68
2023/05/09 00:56:25;;;;;;;;;;;23.10;55.80;;;;;;1552347;74;720;-68
2023/05/09 00:58:27;;;;;;;;;;;23.00;55.80;;;;;;1555313;74;1952;-69
2023/05/09 01:00:29;;;;;;;;;;;23.00;55.80;;;;;;1555969;74;705;-69
2023/05/09 01:02:31;;;;;;;;;;;23.00;56.00;;;;;;1559349;75;640;-69
2023/05/09 01:04:33;;;;;;;;;;;23.00;56.00;;;;;;1558953;74;594;-69
2023/05/09 01:06:55;;;;;;;;;;;23.00;56.20;;;;;;1563160;74;652;-68
2023/05/09 01:08:58;;;;;;;;;;;23.00;56.10;;;;;;1564242;74;1537;-68
2023/05/09 01:11:05;;;;;;;;;;;23.00;56.00;;;;;;1561196;74;684;-67
2023/05/09 01:13:11;;;;;;;;;;;23.00;56.00;;;;;;1539403;75;1361;-69
2023/05/09 01:15:33;;;;;;;;;;;23.00;55.90;;;;;;1544351;75;1132;-71
2023/05/09 01:17:53;;;;;;;;;;;23.00;55.90;;;;;;1565166;74;1170;-71
2023/05/09 01:20:09;;;;;;;;;;;23.10;55.70;;;;;;1566237;74;1939;-72
2023/05/09 01:22:11;;;;;;;;;;;23.10;55.70;;;;;;1558471;74;683;-70
2023/05/09 01:24:26;;;;;;;;;;;23.10;55.60;;;;;;1563228;74;735;-70
2023/05/09 01:26:48;;;;;;;;;;;23.10;55.50;;;;;;1529413;74;1015;-70
2023/05/09 01:28:54;;;;;;;;;;;23.10;55.40;;;;;;1501663;78;1299;-69
2023/05/09 01:30:56;;;;;;;;;;;23.20;55.40;;;;;;1492445;78;736;-69
2023/05/09 01:32:59;;;;;;;;;;;23.10;55.30;;;;;;1491402;78;692;-69
2023/05/09 01:35:01;;;;;;;;;;;23.10;55.20;;;;;;1553919;74;870;-70
2023/05/09 01:37:03;;;;;;;;;;;23.10;55.00;;;;;;1567515;74;1479;-69
2023/05/09 01:39:05;;;;;;;;;;;23.10;55.00;;;;;;1549153;75;1922;-68
2023/05/09 01:41:07;;;;;;;;;;;23.10;55.00;;;;;;1559838;75;663;-70
2023/05/09 01:43:09;;;;;;;;;;;23.20;55.00;;;;;;1548709;74;684;-69
2023/05/09 01:45:12;;;;;;;;;;;23.10;55.00;;;;;;1564351;74;712;-69
2023/05/09 01:47:15;;;;;;;;;;;23.10;54.90;;;;;;1562278;74;679;-68
2023/05/09 01:49:17;;;;;;;;;;;23.10;54.90;;;;;;1566094;74;1210;-69
2023/05/09 01:51:19;;;;;;;;;;;23.10;54.90;;;;;;1565519;74;1482;-69
2023/05/09 01:53:21;;;;;;;;;;;23.10;55.00;;;;;;1565450;76;695;-69
2023/05/09 01:55:24;;;;;;;;;;;23.10;55.10;;;;;;1557510;75;674;-67
2023/05/09 01:57:26;;;;;;;;;;;23.20;55.00;;;;;;1555512;75;1141;-69
2023/05/09 01:59:28;;;;;;;;;;;23.10;55.00;;;;;;1562512;74;1956;-66
2023/05/09 02:01:30;;;;;;;;;;;23.20;54.90;;;;;;1563896;74;663;-69
2023/05/09 02:03:33;;;;;;;;;;;23.20;55.00;;;;;;1558206;76;666;-68
2023/05/09 02:05:34;;;;;;;;;;;23.10;54.80;;;;;;1563877;74;1458;-69
2023/05/09 02:07:36;;;;;;;;;;;23.10;54.80;;;;;;1556144;74;1185;-68
2023/05/09 02:09:38;;;;;;;;;;;23.10;54.80;;;;;;1560345;74;745;-69
2023/05/09 02:11:40;;;;;;;;;;;23.10;54.80;;;;;;1561388;74;695;-66
2023/05/09 02:13:42;;;;;;;;;;;23.20;54.70;;;;;;1565727;74;674;-69
2023/05/09 02:15:44;;;;;;;;;;;23.20;54.70;;;;;;1560031;74;697;-69
2023/05/09 02:17:46;;;;;;;;;;;23.10;54.40;;;;;;1545477;76;1121;-69
2023/05/09 02:19:48;;;;;;;;;;;23.20;54.40;;;;;;1562823;75;1926;-69
2023/05/09 02:21:50;;;;;;;;;;;23.10;54.50;;;;;;1554459;74;698;-69
2023/05/09 02:23:52;;;;;;;;;;;23.10;54.50;;;;;;1561779;74;701;-69
2023/05/09 02:25:54;;;;;;;;;;;23.10;54.40;;;;;;1564911;74;736;-69
2023/05/09 02:27:56;;;;;;;;;;;23.10;54.40;;;;;;1556064;75;1187;-69
2023/05/09 02:30:01;;;;;;;;;;;23.10;54.40;;;;;;1568903;74;633;-69
2023/05/09 02:32:01;;;;;;;;;;;23.20;54.40;;;;;;1569215;74;1526;-67
2023/05/09 02:34:04;;;;;;;;;;;23.10;54.40;;;;;;1567151;74;1468;-69
2023/05/09 02:36:06;;;;;;;;;;;23.10;54.40;;;;;;1560266;74;690;-68
2023/05/09 02:38:07;;;;;;;;;;;23.10;54.60;;;;;;1562680;74;1236;-68
2023/05/09 02:40:09;;;;;;;;;;;23.20;54.40;;;;;;1547020;74;1927;-69
2023/05/09 02:42:12;;;;;;;;;;;23.10;54.40;;;;;;1552586;75;679;-68
2023/05/09 02:44:14;;;;;;;;;;;23.10;54.80;;;;;;1565372;74;760;-68
2023/05/09 02:46:16;;;;;;;;;;;23.10;54.60;;;;;;1565675;74;717;-68
2023/05/09 02:48:18;;;;;;;;;;;23.10;54.80;;;;;;1562876;74;1504;-69
2023/05/09 02:50:20;;;;;;;;;;;23.10;54.70;;;;;;1565258;74;644;-68
2023/05/09 02:52:22;;;;;;;;;;;23.10;54.40;;;;;;1559898;74;745;-68
2023/05/09 02:54:24;;;;;;;;;;;23.10;54.60;;;;;;1559319;74;681;-67
2023/05/09 02:56:26;;;;;;;;;;;23.20;54.40;;;;;;1558165;75;697;-68
2023/05/09 02:58:28;;;;;;;;;;;23.20;54.30;;;;;;1556263;75;1165;-69
2023/05/09 03:00:29;;;;;;;;;;;23.20;54.40;;;;;;1572988;74;1930;-69
2023/05/09 03:02:31;;;;;;;;;;;23.10;54.30;;;;;;1563440;74;1515;-68
2023/05/09 03:04:33;;;;;;;;;;;23.20;54.30;;;;;;1560442;74;714;-68
2023/05/09 03:06:35;;;;;;;;;;;23.10;54.30;;;;;;1566215;74;695;-68
2023/05/09 03:08:37;;;;;;;;;;;23.20;54.20;;;;;;1550909;75;1178;-66
2023/05/09 03:10:39;;;;;;;;;;;23.20;54.00;;;;;;1566536;74;678;-68
2023/05/09 03:12:42;;;;;;;;;;;23.20;54.10;;;;;;1562364;74;663;-68
2023/05/09 03:14:44;;;;;;;;;;;23.10;54.10;;;;;;1568485;74;1435;-68
2023/05/09 03:16:46;;;;;;;;;;;23.10;53.90;;;;;;1563589;74;665;-67
2023/05/09 03:18:48;;;;;;;;;;;23.20;53.90;;;;;;1557493;74;1167;-69
2023/05/09 03:20:49;;;;;;;;;;;23.10;54.10;;;;;;1547371;76;1947;-69
2023/05/09 03:22:52;;;;;;;;;;;23.10;54.30;;;;;;1565934;74;702;-68
2023/05/09 03:24:53;;;;;;;;;;;23.10;54.20;;;;;;1566403;74;735;-67
2023/05/09 03:26:55;;;;;;;;;;;23.10;54.20;;;;;;1565305;74;729;-67
2023/05/09 03:28:57;;;;;;;;;;;23.10;54.30;;;;;;1565318;74;1453;-69
2023/05/09 03:30:59;;;;;;;;;;;23.10;54.30;;;;;;1558692;74;695;-66
2023/05/09 03:33:01;;;;;;;;;;;23.10;54.50;;;;;;1560457;74;736;-68
2023/05/09 03:35:03;;;;;;;;;;;23.10;54.40;;;;;;1554633;74;700;-68
2023/05/09 03:37:05;;;;;;;;;;;23.20;54.40;;;;;;1557543;75;685;-67
2023/05/09 03:39:08;;;;;;;;;;;23.10;54.20;;;;;;1554734;74;1185;-67
2023/05/09 03:41:11;;;;;;;;;;;23.10;54.10;;;;;;1564103;75;1920;-68
2023/05/09 03:43:13;;;;;;;;;;;23.10;54.10;;;;;;1556506;74;1278;-68
2023/05/09 03:45:15;;;;;;;;;;;23.20;54.00;;;;;;1567998;74;653;-67
2023/05/09 03:47:17;;;;;;;;;;;23.10;54.10;;;;;;1561652;75;692;-69
2023/05/09 03:49:19;;;;;;;;;;;23.10;54.00;;;;;;1561961;75;697;-68
2023/05/09 03:51:21;;;;;;;;;;;23.10;54.30;;;;;;1551909;74;705;-71
2023/05/09 03:53:23;;;;;;;;;;;23.20;54.50;;;;;;1554337;74;746;-67
2023/05/09 03:55:25;;;;;;;;;;;23.10;54.50;;;;;;1564064;74;706;-67
2023/05/09 03:57:26;;;;;;;;;;;23.00;54.50;;;;;;1561364;74;1472;-69
2023/05/09 03:59:28;;;;;;;;;;;23.00;54.70;;;;;;1570635;74;1943;-66
2023/05/09 04:01:30;;;;;;;;;;;23.00;54.50;;;;;;1558006;74;679;-67
2023/05/09 04:03:32;;;;;;;;;;;23.00;54.60;;;;;;1561979;75;572;-65
2023/05/09 04:05:34;;;;;;;;;;;23.00;54.40;;;;;;1554969;74;698;-69
2023/05/09 04:07:36;;;;;;;;;;;23.00;54.20;;;;;;1563800;74;1191;-68
2023/05/09 04:09:38;;;;;;;;;;;23.10;54.40;;;;;;1557215;74;685;-67
2023/05/09 04:11:40;;;;;;;;;;;23.00;54.20;;;;;;1562302;74;1477;-64
2023/05/09 04:13:41;;;;;;;;;;;23.00;54.00;;;;;;1560661;74;670;-68
2023/05/09 04:15:43;;;;;;;;;;;23.00;54.10;;;;;;1552176;74;757;-67
2023/05/09 04:17:46;;;;;;;;;;;23.00;54.00;;;;;;1557670;75;1176;-67
2023/05/09 04:19:48;;;;;;;;;;;23.00;54.00;;;;;;1558971;74;1930;-66
2023/05/09 04:21:50;;;;;;;;;;;22.90;54.10;;;;;;1560046;75;849;-68
2023/05/09 04:23:52;;;;;;;;;;;23.00;53.90;;;;;;1566087;74;710;-71
2023/05/09 04:25:54;;;;;;;;;;;23.00;54.00;;;;;;1573935;74;1384;-67
2023/05/09 04:27:56;;;;;;;;;;;22.90;54.10;;;;;;1555424;74;1282;-69
2023/05/09 04:29:58;;;;;;;;;;;22.90;54.20;;;;;;1573528;74;730;-68
2023/05/09 04:32:00;;;;;;;;;;;22.90;54.20;;;;;;1552013;75;725;-70
2023/05/09 04:34:02;;;;;;;;;;;22.90;54.20;;;;;;1566524;74;674;-68
2023/05/09 04:36:04;;;;;;;;;;;22.80;54.20;;;;;;1561573;74;689;-65
2023/05/09 04:38:06;;;;;;;;;;;22.90;54.40;;;;;;1566839;74;1251;-68
2023/05/09 04:40:09;;;;;;;;;;;22.90;54.30;;;;;;1566732;74;1927;-68
2023/05/09 04:42:11;;;;;;;;;;;22.90;54.20;;;;;;1555130;74;679;-68
2023/05/09 04:44:13;;;;;;;;;;;22.90;54.50;;;;;;1565498;74;658;-68
2023/05/09 04:46:15;;;;;;;;;;;22.90;54.70;;;;;;1563163;74;704;-68
2023/05/09 04:48:16;;;;;;;;;;;22.90;54.60;;;;;;1550541;74;1228;-65
2023/05/09 04:50:18;;;;;;;;;;;22.90;54.50;;;;;;1559486;74;691;-66
2023/05/09 04:52:21;;;;;;;;;;;22.90;54.30;;;;;;1555354;74;767;-68
2023/05/09 04:54:22;;;;;;;;;;;23.00;54.30;;;;;;1566145;74;1480;-68
2023/05/09 04:56:24;;;;;;;;;;;22.90;54.20;;;;;;1568613;74;864;-69
2023/05/09 04:58:26;;;;;;;;;;;23.00;54.10;;;;;;1561632;74;1140;-69
2023/05/09 05:00:29;;;;;;;;;;;23.00;54.00;;;;;;1568488;74;1929;-70
2023/05/09 05:02:30;;;;;;;;;;;22.90;54.30;;;;;;1559794;74;702;-66
2023/05/09 05:04:32;;;;;;;;;;;22.90;54.40;;;;;;1556964;74;708;-68
2023/05/09 05:06:34;;;;;;;;;;;22.90;54.70;;;;;;1552725;75;712;-66
2023/05/09 05:08:36;;;;;;;;;;;22.90;54.50;;;;;;1565767;74;1482;-65
2023/05/09 05:10:38;;;;;;;;;;;22.90;54.50;;;;;;1562898;75;702;-66
2023/05/09 05:12:40;;;;;;;;;;;22.90;54.40;;;;;;1563046;75;694;-68
2023/05/09 05:14:42;;;;;;;;;;;22.90;54.30;;;;;;1560943;74;660;-66
2023/05/09 05:16:43;;;;;;;;;;;22.90;54.30;;;;;;1567074;74;624;-67
2023/05/09 05:18:45;;;;;;;;;;;22.90;54.20;;;;;;1564185;74;1181;-65
2023/05/09 05:20:47;;;;;;;;;;;22.90;54.20;;;;;;1557935;74;1936;-65
2023/05/09 05:22:49;;;;;;;;;;;22.90;54.10;;;;;;1553535;74;1272;-66
2023/05/09 05:24:51;;;;;;;;;;;22.90;54.10;;;;;;1557926;74;754;-66
2023/05/09 05:26:53;;;;;;;;;;;22.90;54.10;;;;;;1552723;75;741;-67
2023/05/09 05:28:56;;;;;;;;;;;22.90;54.10;;;;;;1561593;74;1178;-66
2023/05/09 05:30:57;;;;;;;;;;;22.80;54.00;;;;;;1563462;74;665;-64
2023/05/09 05:32:59;;;;;;;;;;;22.70;54.00;;;;;;1558602;74;726;-67
2023/05/09 05:35:03;;;;;;;;;;;22.80;54.20;;;;;;1563482;75;634;-67
2023/05/09 05:37:05;;;;;;;;;;;22.80;54.30;;;;;;1563035;74;1628;-69
2023/05/09 05:39:06;;;;;;;;;;;22.80;54.40;;;;;;1555198;74;1190;-66
2023/05/09 05:41:11;;;;;;;;;;;22.90;54.50;;;;;;1561080;75;1943;-65
2023/05/09 05:43:13;;;;;;;;;;;22.80;54.30;;;;;;1559576;74;723;-66
2023/05/09 05:45:15;;;;;;;;;;;22.90;54.40;;;;;;1559801;74;683;-67
2023/05/09 05:47:17;;;;;;;;;;;22.80;54.20;;;;;;1559695;74;723;-67
2023/05/09 05:49:18;;;;;;;;;;;22.80;54.20;;;;;;1565796;74;1162;-67
2023/05/09 05:51:20;;;;;;;;;;;22.80;54.20;;;;;;1557789;74;1557;-66
2023/05/09 05:53:22;;;;;;;;;;;22.80;54.30;;;;;;1567448;74;714;-67
2023/05/09 05:55:24;;;;;;;;;;;22.80;54.20;;;;;;1560593;74;620;-66
2023/05/09 05:57:26;;;;;;;;;;;22.90;54.30;;;;;;1557345;74;1175;-70
2023/05/09 05:59:28;;;;;;;;;;;22.90;54.20;;;;;;1566127;74;933;-67
2023/05/09 06:01:30;;;;;;;;;;;22.90;54.10;;;;;;1564767;74;1958;-66
2023/05/09 06:03:32;;;;;;;;;;;22.90;54.10;;;;;;1561062;75;1476;-66
2023/05/09 06:05:34;;;;;;;;;;;22.90;54.10;;;;;;1570501;75;697;-66
2023/05/09 06:07:35;;;;;;;;;;;22.80;53.90;;;;;;1561010;74;1192;-67
2023/05/09 06:09:37;;;;;;;;;;;22.90;54.00;;;;;;1564693;75;709;-66
2023/05/09 06:11:39;;;;;;;;;;;22.70;53.90;;;;;;1557867;74;706;-67
2023/05/09 06:13:41;;;;;;;;;;;22.80;53.90;;;;;;1561649;74;725;-67
2023/05/09 06:15:43;;;;;;;;;;;22.80;53.90;;;;;;1565969;74;647;-66
2023/05/09 06:17:45;;;;;;;;;;;22.70;53.90;;;;;;1566098;74;1578;-66
2023/05/09 06:19:47;;;;;;;;;;;22.70;53.90;;;;;;1555421;74;746;-66
2023/05/09 06:21:48;;;;;;;;;;;22.70;53.80;;;;;;1566185;74;1938;-67
2023/05/09 06:23:50;;;;;;;;;;;22.80;53.70;;;;;;1553470;75;698;-66
2023/05/09 06:25:52;;;;;;;;;;;22.80;53.60;;;;;;1564480;74;700;-66
2023/05/09 06:27:54;;;;;;;;;;;22.70;53.70;;;;;;1564437;74;1197;-66
2023/05/09 06:29:56;;;;;;;;;;;22.70;53.70;;;;;;1565024;74;747;-67
2023/05/09 06:31:58;;;;;;;;;;;22.70;53.70;;;;;;1554112;75;1471;-65
2023/05/09 06:34:00;;;;;;;;;;;22.80;53.70;;;;;;1557121;74;688;-67
2023/05/09 06:36:02;;;;;;;;;;;22.80;53.60;;;;;;1559626;74;742;-67
2023/05/09 06:38:04;;;;;;;;;;;22.70;53.60;;;;;;1563417;74;1163;-68
2023/05/09 06:40:06;;;;;;;;;;;22.70;53.50;;;;;;1545344;74;656;-67
2023/05/09 06:42:08;;;;;;;;;;;22.70;53.60;;;;;;1569253;74;1947;-66
2023/05/09 06:44:10;;;;;;;;;;;22.70;53.60;;;;;;1567200;75;718;-68
2023/05/09 06:46:12;;;;;;;;;;;22.70;53.60;;;;;;1563804;74;1468;-66
2023/05/09 06:48:14;;;;;;;;;;;22.80;53.60;;;;;;1563426;74;1232;-66
2023/05/09 06:50:16;;;;;;;;;;;22.80;53.60;;;;;;1559051;74;697;-66
2023/05/09 06:52:20;;;;;;;;;;;22.80;53.60;;;;;;1561025;75;679;-66
2023/05/09 06:54:21;;;;;;;;;;;22.70;53.60;;;;;;1564098;74;1595;-68
2023/05/09 06:56:24;;;;;;;;;;;22.70;53.70;;;;;;1565986;75;740;-68
2023/05/09 06:58:26;;;;;;;;;;;22.70;53.60;;;;;;1564330;75;1145;-68
2023/05/09 07:00:28;;;;;;;;;;;22.70;53.60;;;;;;1561238;74;1440;-66
2023/05/09 07:02:30;;;;;;;;;;;22.60;53.60;;;;;;1559183;74;1947;-66
2023/05/09 07:04:32;;;;;;;;;;;22.70;53.60;;;;;;1552374;74;761;-66
2023/05/09 07:06:34;;;;;;;;;;;22.70;53.70;;;;;;1560881;75;719;-66
2023/05/09 07:08:36;;;;;;;;;;;22.70;53.60;;;;;;1563614;74;1242;-66
2023/05/09 07:10:38;;;;;;;;;;;22.70;53.60;;;;;;1557848;74;714;-66
2023/05/09 07:12:40;;;;;;;;;;;22.70;53.60;;;;;;1566627;76;722;-69
2023/05/09 07:14:42;;;;;;;;;;;22.70;53.60;;;;;;1571696;74;1475;-67
2023/05/09 07:16:45;;;;;;;;;;;22.70;53.40;;;;;;1552540;74;743;-67
2023/05/09 07:18:47;;;;;;;;;;;22.80;52.30;;;;;;1561634;75;1179;-66
2023/05/09 07:20:49;;;;;;;;;;;22.70;51.10;;;;;;1554473;74;1927;-67
2023/05/09 07:22:50;;;;;;;;;;;22.80;49.60;;;;;;1552331;74;714;-67
2023/05/09 07:24:52;;;;;;;;;;;22.80;50.40;;;;;;1561855;74;736;-66
2023/05/09 07:26:54;;;;;;;;;;;22.90;51.00;;;;;;1565981;74;750;-66
2023/05/09 07:28:56;;;;;;;;;;;22.90;50.80;;;;;;1565909;75;1234;-70
2023/05/09 07:30:58;;;;;;;;;;;23.00;50.00;;;;;;1555855;74;684;-68
2023/05/09 07:33:00;;;;;;;;;;;23.00;49.70;;;;;;1564667;74;683;-67
2023/05/09 07:35:02;;;;;;;;;;;23.20;50.40;;;;;;1561681;75;725;-69
2023/05/09 07:37:04;;;;;;;;;;;23.20;49.80;;;;;;1558986;74;675;-67
2023/05/09 07:39:06;;;;;;;;;;;23.30;49.50;;;;;;1561075;74;1094;-69
2023/05/09 07:41:08;;;;;;;;;;;23.30;49.40;;;;;;1563592;74;1926;-67
2023/05/09 07:43:10;;;;;;;;;;;23.40;49.10;;;;;;1558893;75;1484;-69
2023/05/09 07:45:12;;;;;;;;;;;23.40;48.30;;;;;;1549449;74;730;-68
2023/05/09 07:47:14;;;;;;;;;;;23.40;48.30;;;;;;1551726;74;679;-68
2023/05/09 07:49:16;;;;;;;;;;;23.40;48.20;;;;;;1560909;74;1090;-69
2023/05/09 07:51:18;;;;;;;;;;;23.50;47.60;;;;;;1564310;74;692;-69
2023/05/09 07:53:19;;;;;;;;;;;23.50;48.10;;;;;;1566285;74;679;-69
2023/05/09 07:55:21;;;;;;;;;;;23.50;47.60;;;;;;1564630;74;717;-69
2023/05/09 07:57:23;;;;;;;;;;;23.60;47.60;;;;;;1564441;74;1475;-68
2023/05/09 07:59:25;;;;;;;;;;;23.50;46.80;;;;;;1552661;75;686;-68
2023/05/09 08:01:27;;;;;;;;;;;23.40;46.60;;;;;;1566507;74;1950;-70
2023/05/09 08:03:29;;;;;;;;;;;23.40;45.90;;;;;;1556904;74;703;-68
2023/05/09 08:05:31;;;;;;;;;;;23.20;46.10;;;;;;1553572;75;702;-68
2023/05/09 08:07:33;;;;;;;;;;;22.90;46.90;;;;;;1560220;74;1186;-69
2023/05/09 08:09:35;;;;;;;;;;;22.90;47.30;;;;;;1560781;74;705;-68
2023/05/09 08:11:37;;;;;;;;;;;22.90;47.50;;;;;;1551557;74;1493;-68
2023/05/09 08:13:39;;;;;;;;;;;22.90;47.30;;;;;;1561077;74;754;-69
2023/05/09 08:15:41;;;;;;;;;;;22.90;46.50;;;;;;1558770;74;712;-70
2023/05/09 08:17:42;;;;;;;;;;;22.60;47.30;;;;;;1556263;74;1174;-65
2023/05/09 08:19:44;;;;;;;;;;;22.60;47.80;;;;;;1565144;75;701;-67
2023/05/09 08:21:46;;;;;;;;;;;22.50;47.80;;;;;;1554848;74;1947;-68
2023/05/09 08:23:48;;;;;;;;;;;22.60;47.80;;;;;;1564484;74;689;-67
2023/05/09 08:25:53;;;;;;;;;;;22.60;47.80;;;;;;1565554;74;1492;-65
2023/05/09 08:27:55;;;;;;;;;;;22.60;47.70;;;;;;1565389;74;1228;-67
2023/05/09 08:29:57;;;;;;;;;;;22.50;48.10;;;;;;1568778;74;687;-64
2023/05/09 08:31:59;;;;;;;;;;;22.60;48.60;;;;;;1553056;74;603;-67
2023/05/09 08:34:01;;;;;;;;;;;22.70;48.40;;;;;;1560042;74;671;-67
2023/05/09 08:36:03;;;;;;;;;;;22.50;47.90;;;;;;1563224;74;699;-66
2023/05/09 08:38:04;;;;;;;;;;;22.40;48.60;;;;;;1554632;75;1180;-68
2023/05/09 08:40:07;;;;;;;;;;;22.50;48.90;;;;;;1566523;74;1652;-69
2023/05/09 08:42:08;;;;;;;;;;;22.50;48.20;;;;;;1565413;74;1938;-68
2023/05/09 08:44:10;;;;;;;;;;;22.50;48.90;;;;;;1559325;74;655;-65
2023/05/09 08:46:12;;;;;;;;;;;22.50;48.50;;;;;;1565355;74;683;-67
2023/05/09 08:48:17;;;;;;;;;;;22.50;48.50;;;;;;1568802;74;1142;-67
2023/05/09 08:50:19;;;;;;;;;;;22.50;48.90;;;;;;1557314;74;712;-67
2023/05/09 08:52:21;;;;;;;;;;;22.60;48.80;;;;;;1555699;75;1504;-67
2023/05/09 08:54:23;;;;;;;;;;;22.50;48.90;;;;;;1559156;75;733;-66
2023/05/09 08:56:25;;;;;;;;;;;22.50;49.20;;;;;;1564702;75;662;-67
2023/05/09 08:58:27;;;;;;;;;;;22.60;48.90;;;;;;1558681;74;1231;-67
2023/05/09 09:00:29;;;;;;;;;;;22.70;49.00;;;;;;1550856;75;739;-67
2023/05/09 09:02:31;;;;;;;;;;;22.70;48.40;;;;;;1565966;74;1935;-67
2023/05/09 09:04:33;;;;;;;;;;;22.70;48.40;;;;;;1553976;74;691;-67
2023/05/09 09:06:35;;;;;;;;;;;22.60;48.40;;;;;;1558406;74;1483;-67
2023/05/09 09:08:37;;;;;;;;;;;22.70;48.50;;;;;;1559797;74;1170;-65
2023/05/09 09:10:46;;;;;;;;;;;22.70;49.00;;;;;;1559715;74;676;-68
2023/05/09 09:12:43;;;;;;;;;;;22.90;49.10;;;;;;1571998;74;1517;-68
2023/05/09 09:14:49;;;;;;;;;;;22.90;48.90;;;;;;1566465;74;688;-68
2023/05/09 09:16:50;;;;;;;;;;;22.80;48.90;;;;;;1558500;74;686;-66
2023/05/09 09:18:52;;;;;;;;;;;22.80;48.60;;;;;;1552703;75;1179;-68
2023/05/09 09:20:57;;;;;;;;;;;22.90;49.00;;;;;;1564561;75;1466;-67
2023/05/09 09:23:03;;;;;;;;;;;22.80;48.50;;;;;;1558025;74;1927;-66
2023/05/09 09:25:05;;;;;;;;;;;22.90;49.00;;;;;;1565126;74;774;-70
2023/05/09 09:27:07;;;;;;;;;;;22.90;48.70;;;;;;1563217;74;689;-68
2023/05/09 09:29:09;;;;;;;;;;;22.90;49.10;;;;;;1553677;74;1121;-68
2023/05/09 09:31:21;;;;;;;;;;;22.90;49.10;;;;;;1540076;75;713;-69
2023/05/09 09:33:23;;;;;;;;;;;23.00;49.00;;;;;;1553643;75;1003;-69
2023/05/09 09:35:25;;;;;;;;;;;23.10;48.90;;;;;;1563165;74;1468;-71
2023/05/09 09:37:27;;;;;;;;;;;23.20;48.80;;;;;;1555502;74;1162;-67
2023/05/09 09:39:28;;;;;;;;;;;23.20;48.70;;;;;;1555611;75;743;-70
2023/05/09 09:41:32;;;;;;;;;;;23.30;48.60;;;;;;1564725;75;1942;-67
2023/05/09 09:43:34;;;;;;;;;;;23.30;48.60;;;;;;1553279;76;1700;-65
2023/05/09 09:46:12;;;;;;;;;;;23.20;48.40;;;;;;1620066;72;1222;-60
2023/05/09 09:48:14;;;;;;;;;;;23.20;48.60;;;;;;1571747;74;634;-60
2023/05/09 09:50:16;;;;;;;;;;;23.20;48.20;;;;;;1601632;73;1634;-61
2023/05/09 09:52:25;;;;;;;;;;;23.20;48.30;;;;;;1599482;73;676;-62
2023/05/09 09:54:27;;;;;;;;;;;23.20;48.20;;;;;;1592941;73;718;-62
2023/05/09 09:56:39;;;;;;;;;;;23.10;48.10;;;;;;1600602;73;1195;-64
2023/05/09 09:58:41;;;;;;;;;;;23.10;47.80;;;;;;1600061;73;1645;-65
2023/05/09 10:00:45;;;;;;;;;;;23.00;48.00;;;;;;1602047;73;712;-62
2023/05/09 10:02:48;;;;;;;;;;;23.00;48.00;;;;;;1592898;73;1526;-65
2023/05/09 10:04:50;;;;;;;;;;;23.00;48.10;;;;;;1588940;73;1937;-64
2023/05/09 10:06:55;;;;;;;;;;;22.90;48.10;;;;;;1603798;73;1167;-63
2023/05/09 10:08:57;;;;;;;;;;;23.00;48.20;;;;;;1591100;73;702;-62
2023/05/09 10:10:59;;;;;;;;;;;23.00;48.10;;;;;;1597644;73;798;-63
2023/05/09 10:13:06;;;;;;;;;;;23.00;47.80;;;;;;1595744;73;686;-63
2023/05/09 10:15:08;;;;;;;;;;;23.00;47.80;;;;;;1589991;73;1767;-63
2023/05/09 10:17:10;;;;;;;;;;;23.00;47.50;;;;;;1588100;73;1604;-63
2023/05/09 10:19:12;;;;;;;;;;;23.00;47.80;;;;;;1596153;73;674;-64
2023/05/09 10:21:14;;;;;;;;;;;23.00;48.10;;;;;;1597375;73;727;-65
2023/05/09 10:23:16;;;;;;;;;;;23.10;48.10;;;;;;1592990;73;791;-63
2023/05/09 10:25:21;;;;;;;;;;;23.10;48.10;;;;;;1598419;73;1929;-63
2023/05/09 10:27:23;;;;;;;;;;;23.00;47.40;;;;;;1613162;69;2052;-56
2023/05/09 10:29:25;;;;;;;;;;;22.90;47.70;;;;;;1635996;71;661;-56
2023/05/09 10:31:27;;;;;;;;;;;22.80;47.60;;;;;;1635852;71;1328;-56
2023/05/09 10:33:43;;;;;;;;;;;22.80;47.20;;;;;;1620957;71;663;-55
2023/05/09 10:35:47;;;;;;;;;;;22.80;47.60;;;;;;1591014;73;1184;-57
2023/05/09 10:37:49;;;;;;;;;;;22.70;48.10;;;;;;1631676;71;702;-58
2023/05/09 10:39:52;;;;;;;;;;;22.70;48.10;;;;;;1617519;72;670;-58
2023/05/09 10:41:54;;;;;;;;;;;22.70;47.80;;;;;;1631805;72;665;-58
2023/05/09 10:43:56;;;;;;;;;;;22.70;48.20;;;;;;1621693;71;671;-57
2023/05/09 10:45:58;;;;;;;;;;;22.70;47.70;;;;;;1625675;71;1915;-58
2023/05/09 10:48:00;;;;;;;;;;;22.70;48.10;;;;;;1635061;72;668;-55
2023/05/09 10:50:02;;;;;;;;;;;22.60;48.30;;;;;;1627728;71;736;-57
2023/05/09 10:52:04;;;;;;;;;;;22.60;47.60;;;;;;1626307;71;676;-56
2023/05/09 10:54:07;;;;;;;;;;;22.70;47.90;;;;;;1643333;71;725;-58
2023/05/09 10:56:11;;;;;;;;;;;22.70;48.00;;;;;;1628435;71;1742;-57
2023/05/09 10:58:20;;;;;;;;;;;22.70;47.90;;;;;;1621485;71;1558;-58
2023/05/09 11:00:25;;;;;;;;;;;22.70;47.60;;;;;;1640035;72;1675;-56
2023/05/09 11:02:31;;;;;;;;;;;22.70;48.30;;;;;;1639108;71;696;-56
2023/05/09 11:04:33;;;;;;;;;;;22.70;46.80;;;;;;1646607;71;695;-57
2023/05/09 11:06:43;;;;;;;;;;;22.60;47.80;;;;;;1619500;71;1937;-58
2023/05/09 11:08:45;;;;;;;;;;;22.70;48.30;;;;;;1624893;72;650;-59
2023/05/09 11:10:47;;;;;;;;;;;22.60;48.00;;;;;;1614980;72;655;-57
2023/05/09 11:12:58;;;;;;;;;;;22.70;48.10;;;;;;1632703;71;669;-58
2023/05/09 11:15:07;;;;;;;;;;;22.70;48.00;;;;;;1638900;72;658;-58
2023/05/09 11:17:10;;;;;;;;;;;22.70;46.80;;;;;;1626029;71;1128;-56
2023/05/09 11:19:12;;;;;;;;;;;22.60;47.10;;;;;;1635218;72;682;-57
2023/05/09 11:21:14;;;;;;;;;;;22.60;47.50;;;;;;1633961;71;667;-56
2023/05/09 11:23:16;;;;;;;;;;;22.60;47.10;;;;;;1623798;72;683;-56
2023/05/09 11:25:20;;;;;;;;;;;22.60;47.30;;;;;;1630170;71;1931;-58
2023/05/09 11:27:27;;;;;;;;;;;22.60;47.40;;;;;;1631293;71;1600;-56
2023/05/09 11:29:29;;;;;;;;;;;22.70;47.30;;;;;;1620980;72;714;-56
2023/05/09 11:31:31;;;;;;;;;;;22.60;47.00;;;;;;1613298;72;711;-56
2023/05/09 11:33:32;;;;;;;;;;;22.60;47.30;;;;;;1607874;72;686;-57
2023/05/09 11:35:35;;;;;;;;;;;22.60;47.50;;;;;;1591302;73;1262;-56
2023/05/09 11:37:47;;;;;;;;;;;22.60;47.70;;;;;;1601467;73;691;-57
2023/05/09 11:39:58;;;;;;;;;;;22.60;47.20;;;;;;1607030;72;686;-56
2023/05/09 11:42:00;;;;;;;;;;;22.60;47.60;;;;;;1628817;72;1561;-59
2023/05/09 11:44:02;;;;;;;;;;;22.60;47.20;;;;;;1625669;72;675;-58
2023/05/09 11:46:04;;;;;;;;;;;22.60;47.50;;;;;;1619173;72;1939;-58
2023/05/09 11:48:08;;;;;;;;;;;22.60;47.60;;;;;;1623871;72;674;-58
2023/05/09 11:50:11;;;;;;;;;;;22.70;47.50;;;;;;1619265;72;1236;-56
2023/05/09 11:52:12;;;;;;;;;;;22.70;47.10;;;;;;1624905;72;750;-56
2023/05/09 11:54:14;;;;;;;;;;;22.70;47.20;;;;;;1619664;72;677;-57
2023/05/09 11:56:16;;;;;;;;;;;22.80;47.10;;;;;;1602965;72;1435;-56
2023/05/09 11:58:18;;;;;;;;;;;22.70;46.80;;;;;;1614397;71;691;-54
2023/05/09 12:00:20;;;;;;;;;;;22.70;47.10;;;;;;1623706;72;701;-54
2023/05/09 12:02:23;;;;;;;;;;;22.60;46.70;;;;;;1633354;72;680;-55
2023/05/09 12:04:25;;;;;;;;;;;22.70;47.50;;;;;;1619176;72;776;-55
2023/05/09 12:06:27;;;;;;;;;;;22.60;47.20;;;;;;1616665;71;1937;-55
2023/05/09 12:08:29;;;;;;;;;;;22.60;47.40;;;;;;1628876;72;774;-54
2023/05/09 12:10:30;;;;;;;;;;;22.60;47.00;;;;;;1624289;72;1306;-54
2023/05/09 12:12:35;;;;;;;;;;;22.60;47.20;;;;;;1624605;72;945;-57